sensor_id;sensor_type;location;lat;lon;timestamp;temperature;humidity
67750;DHT22;54550;48.838;8.828;2023-09-19T00:00:01;16.00;99.90
67750;DHT22;54550;48.838;8.828;2023-09-19T00:02:27;16.00;99.90
67750;DHT22;54550;48.838;8.828;2023-09-19T00:04:52;15.90;99.90
67750;DHT22;54550;48.838;8.828;2023-09-19T00:07:19;15.90;99.90
67750;DHT22;54550;48.838;8.828;2023-09-19T00:09:44;15.90;99.90
67750;DHT22;54550;48.838;8.828;2023-09-19T00:12:10;15.80;99.90
67750;DHT22;54550;48.838;8.828;2023-09-19T00:14:38;15.70;99.90
67750;DHT22;54550;48.838;8.828;2023-09-19T00:17:04;15.60;99.90
67750;DHT22;54550;48.838;8.828;2023-09-19T00:19:31;15.50;99.90
67750;DHT22;54550;48.838;8.828;2023-09-19T00:21:58;15.40;99.90
67750;DHT22;54550;48.838;8.828;2023-09-19T00:24:23;15.40;99.90
67750;DHT22;54550;48.838;8.828;2023-09-19T00:26:52;15.30;99.90
67750;DHT22;54550;48.838;8.828;2023-09-19T00:29:17;15.20;99.90
67750;DHT22;54550;48.838;8.828;2023-09-19T00:31:43;15.20;99.90
67750;DHT22;54550;48.838;8.828;2023-09-19T00:34:09;15.10;99.90
67750;DHT22;54550;48.838;8.828;2023-09-19T00:36:36;15.00;99.90
67750;DHT22;54550;48.838;8.828;2023-09-19T00:39:04;14.90;99.90
67750;DHT22;54550;48.838;8.828;2023-09-19T00:41:34;14.90;99.90
67750;DHT22;54550;48.838;8.828;2023-09-19T00:44:01;14.90;99.90
67750;DHT22;54550;48.838;8.828;2023-09-19T00:46:29;14.90;99.90
67750;DHT22;54550;48.838;8.828;2023-09-19T00:48:56;14.80;99.90
67750;DHT22;54550;48.838;8.828;2023-09-19T00:51:23;14.80;99.90
67750;DHT22;54550;48.838;8.828;2023-09-19T00:53:51;14.70;99.90
67750;DHT22;54550;48.838;8.828;2023-09-19T00:56:18;14.70;99.90
67750;DHT22;54550;48.838;8.828;2023-09-19T00:58:47;14.70;99.90
67750;DHT22;54550;48.838;8.828;2023-09-19T01:01:13;14.70;99.90
67750;DHT22;54550;48.838;8.828;2023-09-19T01:03:41;14.70;99.90
67750;DHT22;54550;48.838;8.828;2023-09-19T01:06:07;14.60;99.90
67750;DHT22;54550;48.838;8.828;2023-09-19T01:08:35;14.60;99.90
67750;DHT22;54550;48.838;8.828;2023-09-19T01:11:42;14.70;99.90
67750;DHT22;54550;48.838;8.828;2023-09-19T01:14:30;14.90;99.90
67750;DHT22;54550;48.838;8.828;2023-09-19T01:17:18;14.90;99.90
67750;DHT22;54550;48.838;8.828;2023-09-19T01:22:46;15.40;99.90
67750;DHT22;54550;48.838;8.828;2023-09-19T01:28:20;15.40;99.90
67750;DHT22;54550;48.838;8.828;2023-09-19T01:30:47;15.40;99.90
67750;DHT22;54550;48.838;8.828;2023-09-19T01:33:15;15.30;99.90
67750;DHT22;54550;48.838;8.828;2023-09-19T01:35:42;15.20;99.90
67750;DHT22;54550;48.838;8.828;2023-09-19T01:38:07;15.10;99.90
67750;DHT22;54550;48.838;8.828;2023-09-19T01:40:41;15.10;99.90
67750;DHT22;54550;48.838;8.828;2023-09-19T01:43:30;15.10;99.90
67750;DHT22;54550;48.838;8.828;2023-09-19T01:48:38;14.60;99.90
67750;DHT22;54550;48.838;8.828;2023-09-19T01:51:09;14.40;99.90
67750;DHT22;54550;48.838;8.828;2023-09-19T01:56:24;14.40;99.90
67750;DHT22;54550;48.838;8.828;2023-09-19T01:58:53;14.20;99.90
67750;DHT22;54550;48.838;8.828;2023-09-19T02:01:23;14.30;99.90
67750;DHT22;54550;48.838;8.828;2023-09-19T02:03:50;14.30;99.90
67750;DHT22;54550;48.838;8.828;2023-09-19T02:06:16;14.30;99.90
67750;DHT22;54550;48.838;8.828;2023-09-19T02:12:05;14.40;99.90
67750;DHT22;54550;48.838;8.828;2023-09-19T02:14:31;14.50;99.90
67750;DHT22;54550;48.838;8.828;2023-09-19T02:16:57;14.70;99.90
67750;DHT22;54550;48.838;8.828;2023-09-19T02:19:23;14.70;99.90
67750;DHT22;54550;48.838;8.828;2023-09-19T02:21:48;14.60;99.90
67750;DHT22;54550;48.838;8.828;2023-09-19T02:24:15;14.50;99.90
67750;DHT22;54550;48.838;8.828;2023-09-19T02:26:41;14.50;99.90
67750;DHT22;54550;48.838;8.828;2023-09-19T02:29:06;14.60;99.90
67750;DHT22;54550;48.838;8.828;2023-09-19T02:31:32;14.70;99.90
67750;DHT22;54550;48.838;8.828;2023-09-19T02:33:58;14.80;99.90
67750;DHT22;54550;48.838;8.828;2023-09-19T02:36:25;14.90;99.90
67750;DHT22;54550;48.838;8.828;2023-09-19T02:38:51;15.00;99.90
67750;DHT22;54550;48.838;8.828;2023-09-19T02:41:16;15.10;99.90
67750;DHT22;54550;48.838;8.828;2023-09-19T02:43:42;15.20;99.90
67750;DHT22;54550;48.838;8.828;2023-09-19T02:46:08;15.30;99.90
67750;DHT22;54550;48.838;8.828;2023-09-19T02:48:34;15.40;99.90
67750;DHT22;54550;48.838;8.828;2023-09-19T02:51:01;15.40;99.90
67750;DHT22;54550;48.838;8.828;2023-09-19T02:53:28;15.50;99.90
67750;DHT22;54550;48.838;8.828;2023-09-19T02:55:56;15.50;99.90
67750;DHT22;54550;48.838;8.828;2023-09-19T02:58:21;15.50;99.90
67750;DHT22;54550;48.838;8.828;2023-09-19T03:00:49;15.40;99.90
67750;DHT22;54550;48.838;8.828;2023-09-19T03:03:15;15.40;99.90
67750;DHT22;54550;48.838;8.828;2023-09-19T03:05:41;15.50;99.90
67750;DHT22;54550;48.838;8.828;2023-09-19T03:08:13;15.40;99.90
67750;DHT22;54550;48.838;8.828;2023-09-19T03:10:42;15.30;99.90
67750;DHT22;54550;48.838;8.828;2023-09-19T03:13:08;15.20;99.90
67750;DHT22;54550;48.838;8.828;2023-09-19T03:15:35;15.00;99.90
67750;DHT22;54550;48.838;8.828;2023-09-19T03:18:04;14.80;99.90
67750;DHT22;54550;48.838;8.828;2023-09-19T03:20:30;14.70;99.90
67750;DHT22;54550;48.838;8.828;2023-09-19T03:22:56;14.60;99.90
67750;DHT22;54550;48.838;8.828;2023-09-19T03:25:22;14.50;99.90
67750;DHT22;54550;48.838;8.828;2023-09-19T03:27:48;14.50;99.90
67750;DHT22;54550;48.838;8.828;2023-09-19T03:30:14;14.40;99.90
67750;DHT22;54550;48.838;8.828;2023-09-19T03:32:46;14.40;99.90
67750;DHT22;54550;48.838;8.828;2023-09-19T03:35:12;14.40;99.90
67750;DHT22;54550;48.838;8.828;2023-09-19T03:37:40;14.40;99.90
67750;DHT22;54550;48.838;8.828;2023-09-19T03:40:07;14.30;99.90
67750;DHT22;54550;48.838;8.828;2023-09-19T03:42:33;14.30;99.90
67750;DHT22;54550;48.838;8.828;2023-09-19T03:45:01;14.30;99.90
67750;DHT22;54550;48.838;8.828;2023-09-19T03:47:31;14.30;99.90
67750;DHT22;54550;48.838;8.828;2023-09-19T03:49:56;14.30;99.90
67750;DHT22;54550;48.838;8.828;2023-09-19T03:52:22;14.30;99.90
67750;DHT22;54550;48.838;8.828;2023-09-19T03:54:47;14.30;99.90
67750;DHT22;54550;48.838;8.828;2023-09-19T03:57:13;14.30;99.90
67750;DHT22;54550;48.838;8.828;2023-09-19T03:59:41;14.30;99.90
67750;DHT22;54550;48.838;8.828;2023-09-19T04:02:08;14.30;99.90
67750;DHT22;54550;48.838;8.828;2023-09-19T04:04:38;14.30;99.90
67750;DHT22;54550;48.838;8.828;2023-09-19T04:07:04;14.30;99.90
67750;DHT22;54550;48.838;8.828;2023-09-19T04:09:29;14.30;99.90
67750;DHT22;54550;48.838;8.828;2023-09-19T04:11:55;14.30;99.90
67750;DHT22;54550;48.838;8.828;2023-09-19T04:14:20;14.30;99.90
67750;DHT22;54550;48.838;8.828;2023-09-19T04:16:46;14.30;99.90
67750;DHT22;54550;48.838;8.828;2023-09-19T04:19:11;14.30;99.90
67750;DHT22;54550;48.838;8.828;2023-09-19T04:21:38;14.40;99.90
67750;DHT22;54550;48.838;8.828;2023-09-19T04:24:03;14.40;99.90
67750;DHT22;54550;48.838;8.828;2023-09-19T04:26:29;14.40;99.90
67750;DHT22;54550;48.838;8.828;2023-09-19T04:28:54;14.40;99.90
67750;DHT22;54550;48.838;8.828;2023-09-19T04:31:21;14.40;99.90
67750;DHT22;54550;48.838;8.828;2023-09-19T04:33:47;14.40;99.90
67750;DHT22;54550;48.838;8.828;2023-09-19T04:36:13;14.40;99.90
67750;DHT22;54550;48.838;8.828;2023-09-19T04:38:38;14.40;99.90
67750;DHT22;54550;48.838;8.828;2023-09-19T04:41:04;14.40;99.90
67750;DHT22;54550;48.838;8.828;2023-09-19T04:43:29;14.40;99.90
67750;DHT22;54550;48.838;8.828;2023-09-19T04:45:55;14.30;99.90
67750;DHT22;54550;48.838;8.828;2023-09-19T04:48:24;14.40;99.90
67750;DHT22;54550;48.838;8.828;2023-09-19T04:50:50;14.30;99.90
67750;DHT22;54550;48.838;8.828;2023-09-19T04:53:17;14.30;99.90
67750;DHT22;54550;48.838;8.828;2023-09-19T04:55:43;14.30;99.90
67750;DHT22;54550;48.838;8.828;2023-09-19T04:58:08;14.30;99.90
67750;DHT22;54550;48.838;8.828;2023-09-19T05:00:34;14.20;99.90
67750;DHT22;54550;48.838;8.828;2023-09-19T05:03:00;14.20;99.90
67750;DHT22;54550;48.838;8.828;2023-09-19T05:05:26;14.10;99.90
67750;DHT22;54550;48.838;8.828;2023-09-19T05:07:52;14.00;99.90
67750;DHT22;54550;48.838;8.828;2023-09-19T05:10:19;14.00;99.90
67750;DHT22;54550;48.838;8.828;2023-09-19T05:12:45;13.90;99.90
67750;DHT22;54550;48.838;8.828;2023-09-19T05:15:13;13.90;99.90
67750;DHT22;54550;48.838;8.828;2023-09-19T05:17:47;13.90;99.90
67750;DHT22;54550;48.838;8.828;2023-09-19T05:20:13;13.90;99.90
67750;DHT22;54550;48.838;8.828;2023-09-19T05:22:57;13.90;99.90
67750;DHT22;54550;48.838;8.828;2023-09-19T05:25:22;13.90;99.90
67750;DHT22;54550;48.838;8.828;2023-09-19T05:27:48;13.90;99.90
67750;DHT22;54550;48.838;8.828;2023-09-19T05:30:14;13.80;99.90
67750;DHT22;54550;48.838;8.828;2023-09-19T05:32:40;13.80;99.90
67750;DHT22;54550;48.838;8.828;2023-09-19T05:35:05;13.80;99.90
67750;DHT22;54550;48.838;8.828;2023-09-19T05:37:35;13.70;99.90
67750;DHT22;54550;48.838;8.828;2023-09-19T05:40:01;13.60;99.90
67750;DHT22;54550;48.838;8.828;2023-09-19T05:42:27;13.60;99.90
67750;DHT22;54550;48.838;8.828;2023-09-19T05:44:52;13.50;99.90
67750;DHT22;54550;48.838;8.828;2023-09-19T05:47:18;13.50;99.90
67750;DHT22;54550;48.838;8.828;2023-09-19T05:49:43;13.50;99.90
67750;DHT22;54550;48.838;8.828;2023-09-19T05:52:09;13.50;99.90
67750;DHT22;54550;48.838;8.828;2023-09-19T05:54:35;13.50;99.90
67750;DHT22;54550;48.838;8.828;2023-09-19T05:57:00;13.50;99.90
67750;DHT22;54550;48.838;8.828;2023-09-19T05:59:27;13.50;99.90
67750;DHT22;54550;48.838;8.828;2023-09-19T06:01:53;13.50;99.90
67750;DHT22;54550;48.838;8.828;2023-09-19T06:04:18;13.50;99.90
67750;DHT22;54550;48.838;8.828;2023-09-19T06:06:45;13.60;99.90
67750;DHT22;54550;48.838;8.828;2023-09-19T06:09:10;13.60;99.90
67750;DHT22;54550;48.838;8.828;2023-09-19T06:11:36;13.70;99.90
67750;DHT22;54550;48.838;8.828;2023-09-19T06:14:03;13.70;99.90
67750;DHT22;54550;48.838;8.828;2023-09-19T06:16:29;13.70;99.90
67750;DHT22;54550;48.838;8.828;2023-09-19T06:18:55;13.80;99.90
67750;DHT22;54550;48.838;8.828;2023-09-19T06:21:25;13.80;99.90
67750;DHT22;54550;48.838;8.828;2023-09-19T06:23:52;13.90;99.90
67750;DHT22;54550;48.838;8.828;2023-09-19T06:26:18;14.00;99.90
67750;DHT22;54550;48.838;8.828;2023-09-19T06:28:43;14.00;99.90
67750;DHT22;54550;48.838;8.828;2023-09-19T06:31:09;14.10;99.90
67750;DHT22;54550;48.838;8.828;2023-09-19T06:33:36;14.20;99.90
67750;DHT22;54550;48.838;8.828;2023-09-19T06:36:07;14.40;99.90
67750;DHT22;54550;48.838;8.828;2023-09-19T06:38:33;14.50;99.90
67750;DHT22;54550;48.838;8.828;2023-09-19T06:41:02;14.50;99.90
67750;DHT22;54550;48.838;8.828;2023-09-19T06:43:32;14.50;99.90
67750;DHT22;54550;48.838;8.828;2023-09-19T06:45:59;14.50;99.90
67750;DHT22;54550;48.838;8.828;2023-09-19T06:48:25;14.60;99.90
67750;DHT22;54550;48.838;8.828;2023-09-19T06:50:53;14.50;99.90
67750;DHT22;54550;48.838;8.828;2023-09-19T06:53:18;14.50;99.90
67750;DHT22;54550;48.838;8.828;2023-09-19T06:55:44;14.50;99.90
67750;DHT22;54550;48.838;8.828;2023-09-19T06:58:10;14.50;99.90
67750;DHT22;54550;48.838;8.828;2023-09-19T07:00:36;14.50;99.90
67750;DHT22;54550;48.838;8.828;2023-09-19T07:03:03;14.50;99.90
67750;DHT22;54550;48.838;8.828;2023-09-19T07:05:34;14.60;99.90
67750;DHT22;54550;48.838;8.828;2023-09-19T07:08:03;14.50;99.90
67750;DHT22;54550;48.838;8.828;2023-09-19T07:10:29;14.60;99.90
67750;DHT22;54550;48.838;8.828;2023-09-19T07:12:56;14.60;99.90
67750;DHT22;54550;48.838;8.828;2023-09-19T07:15:22;14.70;99.90
67750;DHT22;54550;48.838;8.828;2023-09-19T07:17:50;14.80;99.90
67750;DHT22;54550;48.838;8.828;2023-09-19T07:20:16;15.00;99.90
67750;DHT22;54550;48.838;8.828;2023-09-19T07:22:42;15.20;99.90
67750;DHT22;54550;48.838;8.828;2023-09-19T07:25:07;15.40;99.90
67750;DHT22;54550;48.838;8.828;2023-09-19T07:27:33;15.50;99.90
67750;DHT22;54550;48.838;8.828;2023-09-19T07:29:59;15.60;99.90
67750;DHT22;54550;48.838;8.828;2023-09-19T07:32:24;15.60;99.90
67750;DHT22;54550;48.838;8.828;2023-09-19T07:34:50;15.60;99.90
67750;DHT22;54550;48.838;8.828;2023-09-19T07:37:16;15.50;99.90
67750;DHT22;54550;48.838;8.828;2023-09-19T07:39:42;15.50;99.90
67750;DHT22;54550;48.838;8.828;2023-09-19T07:42:09;15.40;99.90
67750;DHT22;54550;48.838;8.828;2023-09-19T07:44:36;15.40;99.90
67750;DHT22;54550;48.838;8.828;2023-09-19T07:47:02;15.30;99.90
67750;DHT22;54550;48.838;8.828;2023-09-19T07:49:28;15.30;99.90
67750;DHT22;54550;48.838;8.828;2023-09-19T07:51:54;15.40;99.90
67750;DHT22;54550;48.838;8.828;2023-09-19T07:54:20;15.50;99.90
67750;DHT22;54550;48.838;8.828;2023-09-19T07:56:46;15.60;99.90
67750;DHT22;54550;48.838;8.828;2023-09-19T07:59:12;15.70;99.90
67750;DHT22;54550;48.838;8.828;2023-09-19T08:01:39;16.00;99.90
67750;DHT22;54550;48.838;8.828;2023-09-19T08:04:07;16.30;99.90
67750;DHT22;54550;48.838;8.828;2023-09-19T08:06:32;16.50;99.90
67750;DHT22;54550;48.838;8.828;2023-09-19T08:08:58;16.60;99.90
67750;DHT22;54550;48.838;8.828;2023-09-19T08:11:26;17.10;99.90
67750;DHT22;54550;48.838;8.828;2023-09-19T08:13:56;18.40;99.90
67750;DHT22;54550;48.838;8.828;2023-09-19T08:16:21;19.00;99.90
67750;DHT22;54550;48.838;8.828;2023-09-19T08:18:48;19.60;99.90
67750;DHT22;54550;48.838;8.828;2023-09-19T08:21:14;19.90;99.90
67750;DHT22;54550;48.838;8.828;2023-09-19T08:23:40;20.00;99.90
67750;DHT22;54550;48.838;8.828;2023-09-19T08:26:06;19.60;99.90
67750;DHT22;54550;48.838;8.828;2023-09-19T08:28:33;19.30;99.90
67750;DHT22;54550;48.838;8.828;2023-09-19T08:31:06;19.00;99.90
67750;DHT22;54550;48.838;8.828;2023-09-19T08:33:36;19.10;99.90
67750;DHT22;54550;48.838;8.828;2023-09-19T08:36:03;19.40;99.90
67750;DHT22;54550;48.838;8.828;2023-09-19T08:38:34;19.60;99.90
67750;DHT22;54550;48.838;8.828;2023-09-19T08:41:00;19.90;99.90
67750;DHT22;54550;48.838;8.828;2023-09-19T08:43:27;20.30;99.90
67750;DHT22;54550;48.838;8.828;2023-09-19T08:46:11;20.40;99.90
67750;DHT22;54550;48.838;8.828;2023-09-19T08:49:04;20.40;99.90
67750;DHT22;54550;48.838;8.828;2023-09-19T08:51:44;20.00;99.90
67750;DHT22;54550;48.838;8.828;2023-09-19T08:54:25;20.40;99.90
67750;DHT22;54550;48.838;8.828;2023-09-19T08:56:54;20.70;99.90
67750;DHT22;54550;48.838;8.828;2023-09-19T08:59:22;20.80;99.90
67750;DHT22;54550;48.838;8.828;2023-09-19T09:01:53;20.70;99.90
67750;DHT22;54550;48.838;8.828;2023-09-19T09:04:20;20.60;99.90
67750;DHT22;54550;48.838;8.828;2023-09-19T09:06:47;20.60;99.90
67750;DHT22;54550;48.838;8.828;2023-09-19T09:09:17;20.30;99.90
67750;DHT22;54550;48.838;8.828;2023-09-19T09:11:42;19.80;99.90
67750;DHT22;54550;48.838;8.828;2023-09-19T09:14:08;19.30;99.90
67750;DHT22;54550;48.838;8.828;2023-09-19T09:16:34;18.80;99.90
67750;DHT22;54550;48.838;8.828;2023-09-19T09:19:00;18.80;99.90
67750;DHT22;54550;48.838;8.828;2023-09-19T09:21:27;18.50;99.90
67750;DHT22;54550;48.838;8.828;2023-09-19T09:23:54;18.20;99.90
67750;DHT22;54550;48.838;8.828;2023-09-19T09:26:41;18.80;99.90
67750;DHT22;54550;48.838;8.828;2023-09-19T09:29:08;19.10;99.90
67750;DHT22;54550;48.838;8.828;2023-09-19T09:31:33;19.00;99.90
67750;DHT22;54550;48.838;8.828;2023-09-19T09:33:59;18.80;99.90
67750;DHT22;54550;48.838;8.828;2023-09-19T09:36:35;18.60;99.90
67750;DHT22;54550;48.838;8.828;2023-09-19T09:39:02;18.60;99.90
67750;DHT22;54550;48.838;8.828;2023-09-19T09:41:41;18.50;99.90
67750;DHT22;54550;48.838;8.828;2023-09-19T09:44:15;18.60;99.90
67750;DHT22;54550;48.838;8.828;2023-09-19T09:46:47;18.80;99.90
67750;DHT22;54550;48.838;8.828;2023-09-19T09:49:23;18.90;99.90
67750;DHT22;54550;48.838;8.828;2023-09-19T09:52:06;18.80;99.90
67750;DHT22;54550;48.838;8.828;2023-09-19T09:54:33;18.60;99.90
67750;DHT22;54550;48.838;8.828;2023-09-19T09:57:03;18.70;99.90
67750;DHT22;54550;48.838;8.828;2023-09-19T09:59:51;18.90;99.90
67750;DHT22;54550;48.838;8.828;2023-09-19T10:02:26;19.10;99.90
67750;DHT22;54550;48.838;8.828;2023-09-19T10:04:55;19.60;99.90
67750;DHT22;54550;48.838;8.828;2023-09-19T10:07:31;20.20;99.90
67750;DHT22;54550;48.838;8.828;2023-09-19T10:09:59;20.50;99.90
67750;DHT22;54550;48.838;8.828;2023-09-19T10:12:38;20.80;99.90
67750;DHT22;54550;48.838;8.828;2023-09-19T10:15:04;21.60;99.90
67750;DHT22;54550;48.838;8.828;2023-09-19T10:17:34;22.30;99.90
67750;DHT22;54550;48.838;8.828;2023-09-19T10:20:01;22.50;99.90
67750;DHT22;54550;48.838;8.828;2023-09-19T10:22:35;22.30;99.70
67750;DHT22;54550;48.838;8.828;2023-09-19T10:25:04;22.20;99.90
67750;DHT22;54550;48.838;8.828;2023-09-19T10:27:32;22.00;99.90
67750;DHT22;54550;48.838;8.828;2023-09-19T10:30:05;22.00;99.90
67750;DHT22;54550;48.838;8.828;2023-09-19T10:32:34;22.00;99.90
67750;DHT22;54550;48.838;8.828;2023-09-19T10:35:01;22.20;99.50
67750;DHT22;54550;48.838;8.828;2023-09-19T10:37:27;21.40;99.90
67750;DHT22;54550;48.838;8.828;2023-09-19T10:39:56;21.30;99.90
67750;DHT22;54550;48.838;8.828;2023-09-19T10:42:23;20.90;99.90
67750;DHT22;54550;48.838;8.828;2023-09-19T10:44:53;20.60;99.90
67750;DHT22;54550;48.838;8.828;2023-09-19T10:47:20;20.10;99.90
67750;DHT22;54550;48.838;8.828;2023-09-19T10:49:49;19.80;99.90
67750;DHT22;54550;48.838;8.828;2023-09-19T10:52:19;19.80;99.90
67750;DHT22;54550;48.838;8.828;2023-09-19T10:54:48;20.10;99.90
67750;DHT22;54550;48.838;8.828;2023-09-19T10:57:23;20.10;99.90
67750;DHT22;54550;48.838;8.828;2023-09-19T11:00:06;20.10;99.90
67750;DHT22;54550;48.838;8.828;2023-09-19T11:05:41;20.10;99.90
67750;DHT22;54550;48.838;8.828;2023-09-19T11:08:10;19.80;99.90
67750;DHT22;54550;48.838;8.828;2023-09-19T11:10:51;19.80;99.90
67750;DHT22;54550;48.838;8.828;2023-09-19T11:13:27;20.80;99.90
67750;DHT22;54550;48.838;8.828;2023-09-19T11:18:52;22.20;99.90
67750;DHT22;54550;48.838;8.828;2023-09-19T11:26:49;23.30;99.90
67750;DHT22;54550;48.838;8.828;2023-09-19T11:29:28;23.90;98.20
67750;DHT22;54550;48.838;8.828;2023-09-19T11:31:55;23.70;98.70
67750;DHT22;54550;48.838;8.828;2023-09-19T11:37:03;23.80;98.70
67750;DHT22;54550;48.838;8.828;2023-09-19T11:39:30;24.10;96.10
67750;DHT22;54550;48.838;8.828;2023-09-19T11:41:56;23.70;96.20
67750;DHT22;54550;48.838;8.828;2023-09-19T11:44:32;23.30;96.80
67750;DHT22;54550;48.838;8.828;2023-09-19T11:46:59;23.70;96.00
67750;DHT22;54550;48.838;8.828;2023-09-19T11:49:30;24.10;96.10
67750;DHT22;54550;48.838;8.828;2023-09-19T11:51:58;24.00;95.80
67750;DHT22;54550;48.838;8.828;2023-09-19T11:54:27;23.80;94.80
67750;DHT22;54550;48.838;8.828;2023-09-19T11:56:58;23.50;95.50
67750;DHT22;54550;48.838;8.828;2023-09-19T11:59:28;24.00;95.30
67750;DHT22;54550;48.838;8.828;2023-09-19T12:02:04;23.70;95.30
67750;DHT22;54550;48.838;8.828;2023-09-19T12:04:44;23.60;95.30
67750;DHT22;54550;48.838;8.828;2023-09-19T12:07:12;23.50;95.50
67750;DHT22;54550;48.838;8.828;2023-09-19T12:09:49;23.90;95.50
67750;DHT22;54550;48.838;8.828;2023-09-19T12:12:23;24.20;94.50
67750;DHT22;54550;48.838;8.828;2023-09-19T12:14:50;23.70;93.60
67750;DHT22;54550;48.838;8.828;2023-09-19T12:17:16;23.40;95.50
67750;DHT22;54550;48.838;8.828;2023-09-19T12:19:55;23.50;94.40
67750;DHT22;54550;48.838;8.828;2023-09-19T12:22:20;23.40;94.10
67750;DHT22;54550;48.838;8.828;2023-09-19T12:24:46;23.40;94.50
67750;DHT22;54550;48.838;8.828;2023-09-19T12:27:13;23.40;95.00
67750;DHT22;54550;48.838;8.828;2023-09-19T12:29:44;23.10;94.70
67750;DHT22;54550;48.838;8.828;2023-09-19T12:32:10;23.30;95.30
67750;DHT22;54550;48.838;8.828;2023-09-19T12:34:36;23.20;94.80
67750;DHT22;54550;48.838;8.828;2023-09-19T12:39:48;23.40;94.20
67750;DHT22;54550;48.838;8.828;2023-09-19T12:42:16;23.50;94.00
67750;DHT22;54550;48.838;8.828;2023-09-19T12:44:53;23.30;94.90
67750;DHT22;54550;48.838;8.828;2023-09-19T12:47:23;23.60;94.40
67750;DHT22;54550;48.838;8.828;2023-09-19T12:50:15;24.00;94.50
67750;DHT22;54550;48.838;8.828;2023-09-19T12:52:55;24.50;93.70
67750;DHT22;54550;48.838;8.828;2023-09-19T12:55:31;24.60;92.80
67750;DHT22;54550;48.838;8.828;2023-09-19T12:58:14;24.60;93.70
67750;DHT22;54550;48.838;8.828;2023-09-19T13:00:45;25.00;93.60
67750;DHT22;54550;48.838;8.828;2023-09-19T13:06:00;25.30;93.50
67750;DHT22;54550;48.838;8.828;2023-09-19T13:08:32;25.60;91.90
67750;DHT22;54550;48.838;8.828;2023-09-19T13:11:17;26.20;91.60
67750;DHT22;54550;48.838;8.828;2023-09-19T13:14:12;26.60;91.60
67750;DHT22;54550;48.838;8.828;2023-09-19T13:17:02;27.10;91.50
67750;DHT22;54550;48.838;8.828;2023-09-19T13:19:49;27.10;91.20
67750;DHT22;54550;48.838;8.828;2023-09-19T13:22:40;25.80;92.00
67750;DHT22;54550;48.838;8.828;2023-09-19T13:25:19;24.50;93.30
67750;DHT22;54550;48.838;8.828;2023-09-19T13:27:56;24.70;93.90
67750;DHT22;54550;48.838;8.828;2023-09-19T13:30:23;25.10;93.10
67750;DHT22;54550;48.838;8.828;2023-09-19T13:32:51;24.00;93.80
67750;DHT22;54550;48.838;8.828;2023-09-19T13:35:18;24.20;93.90
67750;DHT22;54550;48.838;8.828;2023-09-19T13:37:44;24.80;93.60
67750;DHT22;54550;48.838;8.828;2023-09-19T13:40:14;25.30;93.40
67750;DHT22;54550;48.838;8.828;2023-09-19T13:42:41;25.00;92.50
67750;DHT22;54550;48.838;8.828;2023-09-19T13:45:07;25.40;92.70
67750;DHT22;54550;48.838;8.828;2023-09-19T13:47:33;25.50;91.90
67750;DHT22;54550;48.838;8.828;2023-09-19T13:50:00;25.50;92.40
67750;DHT22;54550;48.838;8.828;2023-09-19T13:52:26;25.90;92.10
67750;DHT22;54550;48.838;8.828;2023-09-19T13:54:54;25.90;91.50
67750;DHT22;54550;48.838;8.828;2023-09-19T13:57:22;26.20;91.10
67750;DHT22;54550;48.838;8.828;2023-09-19T13:59:48;26.60;91.30
67750;DHT22;54550;48.838;8.828;2023-09-19T14:02:13;26.80;90.20
67750;DHT22;54550;48.838;8.828;2023-09-19T14:04:39;26.90;90.00
67750;DHT22;54550;48.838;8.828;2023-09-19T14:07:05;26.20;89.00
67750;DHT22;54550;48.838;8.828;2023-09-19T14:09:32;25.50;90.40
67750;DHT22;54550;48.838;8.828;2023-09-19T14:11:59;25.00;90.50
67750;DHT22;54550;48.838;8.828;2023-09-19T14:14:25;24.90;90.40
67750;DHT22;54550;48.838;8.828;2023-09-19T14:16:50;25.10;91.30
67750;DHT22;54550;48.838;8.828;2023-09-19T14:19:18;25.20;91.00
67750;DHT22;54550;48.838;8.828;2023-09-19T14:21:43;25.20;90.80
67750;DHT22;54550;48.838;8.828;2023-09-19T14:24:09;25.00;91.30
67750;DHT22;54550;48.838;8.828;2023-09-19T14:26:41;25.70;91.40
67750;DHT22;54550;48.838;8.828;2023-09-19T14:29:06;26.30;90.60
67750;DHT22;54550;48.838;8.828;2023-09-19T14:31:33;26.60;89.00
67750;DHT22;54550;48.838;8.828;2023-09-19T14:33:59;26.50;90.00
67750;DHT22;54550;48.838;8.828;2023-09-19T14:36:25;26.00;90.10
67750;DHT22;54550;48.838;8.828;2023-09-19T14:38:55;25.80;91.40
67750;DHT22;54550;48.838;8.828;2023-09-19T14:41:22;26.20;90.40
67750;DHT22;54550;48.838;8.828;2023-09-19T14:43:51;25.80;89.70
67750;DHT22;54550;48.838;8.828;2023-09-19T14:46:17;25.00;90.30
67750;DHT22;54550;48.838;8.828;2023-09-19T14:48:44;24.10;90.80
67750;DHT22;54550;48.838;8.828;2023-09-19T14:51:12;24.50;91.30
67750;DHT22;54550;48.838;8.828;2023-09-19T14:53:39;25.10;91.50
67750;DHT22;54550;48.838;8.828;2023-09-19T14:56:06;25.80;90.80
67750;DHT22;54550;48.838;8.828;2023-09-19T14:58:33;25.70;88.60
67750;DHT22;54550;48.838;8.828;2023-09-19T15:01:09;26.10;90.50
67750;DHT22;54550;48.838;8.828;2023-09-19T15:03:39;26.30;90.30
67750;DHT22;54550;48.838;8.828;2023-09-19T15:06:12;25.90;90.10
67750;DHT22;54550;48.838;8.828;2023-09-19T15:08:44;25.20;90.00
67750;DHT22;54550;48.838;8.828;2023-09-19T15:11:19;24.40;91.60
67750;DHT22;54550;48.838;8.828;2023-09-19T15:13:46;23.30;91.90
67750;DHT22;54550;48.838;8.828;2023-09-19T15:16:12;22.50;92.60
67750;DHT22;54550;48.838;8.828;2023-09-19T15:18:40;22.60;93.20
67750;DHT22;54550;48.838;8.828;2023-09-19T15:21:11;23.10;92.50
67750;DHT22;54550;48.838;8.828;2023-09-19T15:23:39;23.10;92.40
67750;DHT22;54550;48.838;8.828;2023-09-19T15:26:05;22.80;93.00
67750;DHT22;54550;48.838;8.828;2023-09-19T15:28:32;22.60;93.30
67750;DHT22;54550;48.838;8.828;2023-09-19T15:31:19;22.70;94.20
67750;DHT22;54550;48.838;8.828;2023-09-19T15:33:44;22.70;93.70
67750;DHT22;54550;48.838;8.828;2023-09-19T15:36:14;22.90;93.20
67750;DHT22;54550;48.838;8.828;2023-09-19T15:38:59;22.80;93.00
67750;DHT22;54550;48.838;8.828;2023-09-19T15:41:30;22.60;93.40
67750;DHT22;54550;48.838;8.828;2023-09-19T15:43:57;22.30;94.40
67750;DHT22;54550;48.838;8.828;2023-09-19T15:46:24;22.10;94.10
67750;DHT22;54550;48.838;8.828;2023-09-19T15:48:52;21.80;94.50
67750;DHT22;54550;48.838;8.828;2023-09-19T15:51:18;21.80;94.40
67750;DHT22;54550;48.838;8.828;2023-09-19T15:56:14;22.00;94.60
67750;DHT22;54550;48.838;8.828;2023-09-19T15:58:40;22.40;94.60
67750;DHT22;54550;48.838;8.828;2023-09-19T16:01:07;22.80;94.30
67750;DHT22;54550;48.838;8.828;2023-09-19T16:03:39;22.90;94.10
67750;DHT22;54550;48.838;8.828;2023-09-19T16:06:10;23.10;93.70
67750;DHT22;54550;48.838;8.828;2023-09-19T16:08:40;23.10;94.20
67750;DHT22;54550;48.838;8.828;2023-09-19T16:11:05;22.80;94.20
67750;DHT22;54550;48.838;8.828;2023-09-19T16:13:31;22.80;94.80
67750;DHT22;54550;48.838;8.828;2023-09-19T16:15:57;22.70;94.70